sensor_id;sensor_type;location;lat;lon;timestamp;temperature;humidity
40670;DHT22;26355;45.528;9.234;2022-11-12T00:00:18;15.20;99.90
40670;DHT22;26355;45.528;9.234;2022-11-12T00:02:44;15.10;99.90
40670;DHT22;26355;45.528;9.234;2022-11-12T00:05:10;15.20;99.90
40670;DHT22;26355;45.528;9.234;2022-11-12T00:07:35;15.10;99.90
40670;DHT22;26355;45.528;9.234;2022-11-12T00:10:01;15.00;99.90
40670;DHT22;26355;45.528;9.234;2022-11-12T00:12:27;15.00;99.90
40670;DHT22;26355;45.528;9.234;2022-11-12T00:14:53;14.90;99.90
40670;DHT22;26355;45.528;9.234;2022-11-12T00:17:18;15.00;99.90
40670;DHT22;26355;45.528;9.234;2022-11-12T00:19:44;15.00;99.90
40670;DHT22;26355;45.528;9.234;2022-11-12T00:22:10;14.90;99.90
40670;DHT22;26355;45.528;9.234;2022-11-12T00:24:35;15.00;99.90
40670;DHT22;26355;45.528;9.234;2022-11-12T00:27:01;15.10;99.90
40670;DHT22;26355;45.528;9.234;2022-11-12T00:29:27;15.00;99.90
40670;DHT22;26355;45.528;9.234;2022-11-12T00:31:52;14.90;99.90
40670;DHT22;26355;45.528;9.234;2022-11-12T00:34:18;14.90;99.90
40670;DHT22;26355;45.528;9.234;2022-11-12T00:36:44;14.90;99.90
40670;DHT22;26355;45.528;9.234;2022-11-12T00:39:09;14.90;99.90
40670;DHT22;26355;45.528;9.234;2022-11-12T00:41:35;14.90;99.90
40670;DHT22;26355;45.528;9.234;2022-11-12T00:44:01;14.90;99.90
40670;DHT22;26355;45.528;9.234;2022-11-12T00:46:26;14.80;99.90
40670;DHT22;26355;45.528;9.234;2022-11-12T00:48:52;14.80;99.90
40670;DHT22;26355;45.528;9.234;2022-11-12T00:51:18;14.70;99.90
40670;DHT22;26355;45.528;9.234;2022-11-12T00:53:46;14.80;99.90
40670;DHT22;26355;45.528;9.234;2022-11-12T00:56:13;14.70;99.90
40670;DHT22;26355;45.528;9.234;2022-11-12T00:58:39;14.70;99.90
40670;DHT22;26355;45.528;9.234;2022-11-12T01:01:13;14.70;99.90
40670;DHT22;26355;45.528;9.234;2022-11-12T01:03:40;14.60;99.90
40670;DHT22;26355;45.528;9.234;2022-11-12T01:06:14;14.70;99.90
40670;DHT22;26355;45.528;9.234;2022-11-12T01:08:41;14.50;99.90
40670;DHT22;26355;45.528;9.234;2022-11-12T01:11:28;14.60;99.90
40670;DHT22;26355;45.528;9.234;2022-11-12T01:14:00;14.60;99.90
40670;DHT22;26355;45.528;9.234;2022-11-12T01:16:28;14.60;99.90
40670;DHT22;26355;45.528;9.234;2022-11-12T01:18:56;14.60;99.90
40670;DHT22;26355;45.528;9.234;2022-11-12T01:21:24;14.40;99.90
40670;DHT22;26355;45.528;9.234;2022-11-12T01:23:50;14.60;99.90
40670;DHT22;26355;45.528;9.234;2022-11-12T01:26:18;14.50;99.90
40670;DHT22;26355;45.528;9.234;2022-11-12T01:28:44;14.50;99.90
40670;DHT22;26355;45.528;9.234;2022-11-12T01:31:14;14.50;99.90
40670;DHT22;26355;45.528;9.234;2022-11-12T01:33:41;14.50;99.90
40670;DHT22;26355;45.528;9.234;2022-11-12T01:36:07;14.50;99.90
40670;DHT22;26355;45.528;9.234;2022-11-12T01:38:35;14.50;99.90
40670;DHT22;26355;45.528;9.234;2022-11-12T01:41:01;14.50;99.90
40670;DHT22;26355;45.528;9.234;2022-11-12T01:43:27;14.50;99.90
40670;DHT22;26355;45.528;9.234;2022-11-12T01:45:53;14.50;99.90
40670;DHT22;26355;45.528;9.234;2022-11-12T01:48:29;14.40;99.90
40670;DHT22;26355;45.528;9.234;2022-11-12T01:50:56;14.40;99.90
40670;DHT22;26355;45.528;9.234;2022-11-12T01:53:23;14.30;99.90
40670;DHT22;26355;45.528;9.234;2022-11-12T01:55:51;14.40;99.90
40670;DHT22;26355;45.528;9.234;2022-11-12T01:58:19;14.40;99.90
40670;DHT22;26355;45.528;9.234;2022-11-12T02:00:47;14.30;99.90
40670;DHT22;26355;45.528;9.234;2022-11-12T02:03:18;14.30;99.90
40670;DHT22;26355;45.528;9.234;2022-11-12T02:05:46;14.30;99.90
40670;DHT22;26355;45.528;9.234;2022-11-12T02:08:13;14.20;99.90
40670;DHT22;26355;45.528;9.234;2022-11-12T02:10:39;14.30;99.90
40670;DHT22;26355;45.528;9.234;2022-11-12T02:13:06;14.20;99.90
40670;DHT22;26355;45.528;9.234;2022-11-12T02:15:52;14.20;99.90
40670;DHT22;26355;45.528;9.234;2022-11-12T02:18:18;14.20;99.90
40670;DHT22;26355;45.528;9.234;2022-11-12T02:20:43;14.10;99.90
40670;DHT22;26355;45.528;9.234;2022-11-12T02:23:09;14.20;99.90
40670;DHT22;26355;45.528;9.234;2022-11-12T02:25:36;14.00;99.90
40670;DHT22;26355;45.528;9.234;2022-11-12T02:28:05;14.10;99.90
40670;DHT22;26355;45.528;9.234;2022-11-12T02:33:04;14.10;99.90
40670;DHT22;26355;45.528;9.234;2022-11-12T02:35:34;14.10;99.90
40670;DHT22;26355;45.528;9.234;2022-11-12T02:38:00;14.10;99.90
40670;DHT22;26355;45.528;9.234;2022-11-12T02:40:25;14.10;99.90
40670;DHT22;26355;45.528;9.234;2022-11-12T02:42:51;14.20;99.90
40670;DHT22;26355;45.528;9.234;2022-11-12T02:45:17;14.10;99.90
40670;DHT22;26355;45.528;9.234;2022-11-12T02:47:45;14.00;99.90
40670;DHT22;26355;45.528;9.234;2022-11-12T02:50:11;13.90;99.90
40670;DHT22;26355;45.528;9.234;2022-11-12T02:52:37;13.80;99.90
40670;DHT22;26355;45.528;9.234;2022-11-12T02:55:06;13.90;99.90
40670;DHT22;26355;45.528;9.234;2022-11-12T02:57:41;13.80;99.90
40670;DHT22;26355;45.528;9.234;2022-11-12T03:00:52;13.70;99.90
40670;DHT22;26355;45.528;9.234;2022-11-12T03:03:56;13.60;99.90
40670;DHT22;26355;45.528;9.234;2022-11-12T03:07:34;13.20;99.90
40670;DHT22;26355;45.528;9.234;2022-11-12T03:09:59;13.40;99.90
40670;DHT22;26355;45.528;9.234;2022-11-12T03:12:25;13.40;99.90
40670;DHT22;26355;45.528;9.234;2022-11-12T03:14:51;13.30;99.90
40670;DHT22;26355;45.528;9.234;2022-11-12T03:17:17;13.40;99.90
40670;DHT22;26355;45.528;9.234;2022-11-12T03:19:44;13.50;99.90
40670;DHT22;26355;45.528;9.234;2022-11-12T03:22:09;13.40;99.90
40670;DHT22;26355;45.528;9.234;2022-11-12T03:24:35;13.50;99.90
40670;DHT22;26355;45.528;9.234;2022-11-12T03:27:00;13.50;99.90
40670;DHT22;26355;45.528;9.234;2022-11-12T03:29:26;13.50;99.90
40670;DHT22;26355;45.528;9.234;2022-11-12T03:31:52;13.60;99.90
40670;DHT22;26355;45.528;9.234;2022-11-12T03:34:17;13.50;99.90
40670;DHT22;26355;45.528;9.234;2022-11-12T03:36:43;13.60;99.90
40670;DHT22;26355;45.528;9.234;2022-11-12T03:39:08;13.60;99.90
40670;DHT22;26355;45.528;9.234;2022-11-12T03:41:34;13.60;99.90
40670;DHT22;26355;45.528;9.234;2022-11-12T03:44:00;13.50;99.90
40670;DHT22;26355;45.528;9.234;2022-11-12T03:46:25;13.40;99.90
40670;DHT22;26355;45.528;9.234;2022-11-12T03:48:51;13.40;99.90
40670;DHT22;26355;45.528;9.234;2022-11-12T03:51:17;13.40;99.90
40670;DHT22;26355;45.528;9.234;2022-11-12T03:53:45;13.30;99.90
40670;DHT22;26355;45.528;9.234;2022-11-12T03:56:11;13.30;99.90
40670;DHT22;26355;45.528;9.234;2022-11-12T03:58:37;13.30;99.90
40670;DHT22;26355;45.528;9.234;2022-11-12T04:01:02;13.20;99.90
40670;DHT22;26355;45.528;9.234;2022-11-12T04:03:28;13.30;99.90
40670;DHT22;26355;45.528;9.234;2022-11-12T04:05:54;13.20;99.90
40670;DHT22;26355;45.528;9.234;2022-11-12T04:08:38;13.30;99.90
40670;DHT22;26355;45.528;9.234;2022-11-12T04:13:30;13.30;99.90
40670;DHT22;26355;45.528;9.234;2022-11-12T04:16:09;13.30;99.90
40670;DHT22;26355;45.528;9.234;2022-11-12T04:18:56;13.30;99.90
40670;DHT22;26355;45.528;9.234;2022-11-12T04:21:44;13.40;99.90
40670;DHT22;26355;45.528;9.234;2022-11-12T04:24:39;13.40;99.90
40670;DHT22;26355;45.528;9.234;2022-11-12T04:27:31;13.30;99.90
40670;DHT22;26355;45.528;9.234;2022-11-12T04:29:57;13.30;99.90
40670;DHT22;26355;45.528;9.234;2022-11-12T04:32:51;13.30;99.90
40670;DHT22;26355;45.528;9.234;2022-11-12T04:35:24;13.30;99.90
40670;DHT22;26355;45.528;9.234;2022-11-12T04:37:50;13.30;99.90
40670;DHT22;26355;45.528;9.234;2022-11-12T04:40:23;13.40;99.90
40670;DHT22;26355;45.528;9.234;2022-11-12T04:43:10;13.30;99.90
40670;DHT22;26355;45.528;9.234;2022-11-12T04:45:54;13.30;99.90
40670;DHT22;26355;45.528;9.234;2022-11-12T04:48:21;13.30;99.90
40670;DHT22;26355;45.528;9.234;2022-11-12T04:50:52;13.30;99.90
40670;DHT22;26355;45.528;9.234;2022-11-12T04:53:19;13.30;99.90
40670;DHT22;26355;45.528;9.234;2022-11-12T04:56:01;13.40;99.90
40670;DHT22;26355;45.528;9.234;2022-11-12T04:59:06;13.20;99.90
40670;DHT22;26355;45.528;9.234;2022-11-12T05:01:57;13.20;99.90
40670;DHT22;26355;45.528;9.234;2022-11-12T05:04:23;13.20;99.90
40670;DHT22;26355;45.528;9.234;2022-11-12T05:06:57;13.20;99.90
40670;DHT22;26355;45.528;9.234;2022-11-12T05:09:25;13.20;99.90
40670;DHT22;26355;45.528;9.234;2022-11-12T05:11:52;13.10;99.90
40670;DHT22;26355;45.528;9.234;2022-11-12T05:14:20;13.10;99.90
40670;DHT22;26355;45.528;9.234;2022-11-12T05:16:46;13.10;99.90
40670;DHT22;26355;45.528;9.234;2022-11-12T05:19:11;13.10;99.90
40670;DHT22;26355;45.528;9.234;2022-11-12T05:21:37;13.10;99.90
40670;DHT22;26355;45.528;9.234;2022-11-12T05:24:21;13.00;99.90
40670;DHT22;26355;45.528;9.234;2022-11-12T05:26:47;13.00;99.90
40670;DHT22;26355;45.528;9.234;2022-11-12T05:29:13;12.90;99.90
40670;DHT22;26355;45.528;9.234;2022-11-12T05:31:39;13.00;99.90
40670;DHT22;26355;45.528;9.234;2022-11-12T05:34:04;13.10;99.90
40670;DHT22;26355;45.528;9.234;2022-11-12T05:36:30;13.10;99.90
40670;DHT22;26355;45.528;9.234;2022-11-12T05:38:56;13.30;99.90
40670;DHT22;26355;45.528;9.234;2022-11-12T05:41:22;13.30;99.90
40670;DHT22;26355;45.528;9.234;2022-11-12T05:43:48;13.40;99.90
40670;DHT22;26355;45.528;9.234;2022-11-12T05:46:14;13.40;99.90
40670;DHT22;26355;45.528;9.234;2022-11-12T05:48:39;13.60;99.90
40670;DHT22;26355;45.528;9.234;2022-11-12T05:51:05;13.60;99.90
40670;DHT22;26355;45.528;9.234;2022-11-12T05:53:30;13.80;99.90
40670;DHT22;26355;45.528;9.234;2022-11-12T05:56:01;13.80;99.90
40670;DHT22;26355;45.528;9.234;2022-11-12T05:58:27;13.80;99.90
40670;DHT22;26355;45.528;9.234;2022-11-12T06:00:52;13.90;99.90
40670;DHT22;26355;45.528;9.234;2022-11-12T06:03:18;13.90;99.90
40670;DHT22;26355;45.528;9.234;2022-11-12T06:05:44;13.90;99.90
40670;DHT22;26355;45.528;9.234;2022-11-12T06:08:09;13.90;99.90
40670;DHT22;26355;45.528;9.234;2022-11-12T06:10:35;14.10;99.90
40670;DHT22;26355;45.528;9.234;2022-11-12T06:13:01;13.90;99.90
40670;DHT22;26355;45.528;9.234;2022-11-12T06:15:26;14.00;99.90
40670;DHT22;26355;45.528;9.234;2022-11-12T06:17:53;14.00;99.90
40670;DHT22;26355;45.528;9.234;2022-11-12T06:20:20;14.00;99.90
40670;DHT22;26355;45.528;9.234;2022-11-12T06:22:45;14.00;99.90
40670;DHT22;26355;45.528;9.234;2022-11-12T06:25:12;14.00;99.90
40670;DHT22;26355;45.528;9.234;2022-11-12T06:27:38;13.90;99.90
40670;DHT22;26355;45.528;9.234;2022-11-12T06:30:05;14.00;99.90
40670;DHT22;26355;45.528;9.234;2022-11-12T06:32:31;13.90;99.90
40670;DHT22;26355;45.528;9.234;2022-11-12T06:34:56;13.90;99.90
40670;DHT22;26355;45.528;9.234;2022-11-12T06:37:22;13.80;99.90
40670;DHT22;26355;45.528;9.234;2022-11-12T06:42:56;13.80;99.90
40670;DHT22;26355;45.528;9.234;2022-11-12T06:45:23;13.80;99.90
40670;DHT22;26355;45.528;9.234;2022-11-12T06:47:49;13.80;99.90
40670;DHT22;26355;45.528;9.234;2022-11-12T06:50:14;13.70;99.90
40670;DHT22;26355;45.528;9.234;2022-11-12T06:52:40;13.70;99.90
40670;DHT22;26355;45.528;9.234;2022-11-12T06:55:06;13.60;99.90
40670;DHT22;26355;45.528;9.234;2022-11-12T06:57:35;13.60;99.90
40670;DHT22;26355;45.528;9.234;2022-11-12T07:00:01;13.60;99.90
40670;DHT22;26355;45.528;9.234;2022-11-12T07:02:26;13.60;99.90
40670;DHT22;26355;45.528;9.234;2022-11-12T07:04:52;13.60;99.90
40670;DHT22;26355;45.528;9.234;2022-11-12T07:07:18;13.60;99.90
40670;DHT22;26355;45.528;9.234;2022-11-12T07:09:43;13.60;99.90
40670;DHT22;26355;45.528;9.234;2022-11-12T07:12:09;13.60;99.90
40670;DHT22;26355;45.528;9.234;2022-11-12T07:14:35;13.70;99.90
40670;DHT22;26355;45.528;9.234;2022-11-12T07:17:01;13.60;99.90
40670;DHT22;26355;45.528;9.234;2022-11-12T07:19:27;13.60;99.90
40670;DHT22;26355;45.528;9.234;2022-11-12T07:21:52;13.70;99.90
40670;DHT22;26355;45.528;9.234;2022-11-12T07:24:18;13.70;99.90
40670;DHT22;26355;45.528;9.234;2022-11-12T07:26:44;13.70;99.90
40670;DHT22;26355;45.528;9.234;2022-11-12T07:29:09;13.70;99.90
40670;DHT22;26355;45.528;9.234;2022-11-12T07:31:35;13.70;99.90
40670;DHT22;26355;45.528;9.234;2022-11-12T07:34:01;13.90;99.90
40670;DHT22;26355;45.528;9.234;2022-11-12T07:36:27;13.70;99.90
40670;DHT22;26355;45.528;9.234;2022-11-12T07:38:53;13.70;99.90
40670;DHT22;26355;45.528;9.234;2022-11-12T07:41:21;13.80;99.90
40670;DHT22;26355;45.528;9.234;2022-11-12T07:43:51;13.80;99.90
40670;DHT22;26355;45.528;9.234;2022-11-12T07:46:19;13.70;99.90
40670;DHT22;26355;45.528;9.234;2022-11-12T07:48:45;13.70;99.90
40670;DHT22;26355;45.528;9.234;2022-11-12T07:51:19;13.70;99.90
40670;DHT22;26355;45.528;9.234;2022-11-12T07:53:46;13.70;99.90
40670;DHT22;26355;45.528;9.234;2022-11-12T07:56:17;13.60;99.90
40670;DHT22;26355;45.528;9.234;2022-11-12T07:58:43;13.60;99.90
40670;DHT22;26355;45.528;9.234;2022-11-12T08:03:39;13.70;99.90
40670;DHT22;26355;45.528;9.234;2022-11-12T08:06:05;13.70;99.90
40670;DHT22;26355;45.528;9.234;2022-11-12T08:08:31;13.80;99.90
40670;DHT22;26355;45.528;9.234;2022-11-12T08:10:57;13.90;99.90
40670;DHT22;26355;45.528;9.234;2022-11-12T08:13:23;13.90;99.90
40670;DHT22;26355;45.528;9.234;2022-11-12T08:15:49;14.00;99.90
40670;DHT22;26355;45.528;9.234;2022-11-12T08:18:15;14.00;99.90
40670;DHT22;26355;45.528;9.234;2022-11-12T08:20:41;14.10;99.90
40670;DHT22;26355;45.528;9.234;2022-11-12T08:23:07;14.10;99.90
40670;DHT22;26355;45.528;9.234;2022-11-12T08:25:33;14.10;99.90
40670;DHT22;26355;45.528;9.234;2022-11-12T08:27:59;14.20;99.90
40670;DHT22;26355;45.528;9.234;2022-11-12T08:30:26;14.20;99.90
40670;DHT22;26355;45.528;9.234;2022-11-12T08:32:57;14.20;99.90
40670;DHT22;26355;45.528;9.234;2022-11-12T08:35:24;14.20;99.90
40670;DHT22;26355;45.528;9.234;2022-11-12T08:37:51;14.20;99.90
40670;DHT22;26355;45.528;9.234;2022-11-12T08:40:19;14.10;99.90
40670;DHT22;26355;45.528;9.234;2022-11-12T08:42:59;14.20;99.90
40670;DHT22;26355;45.528;9.234;2022-11-12T08:45:25;14.20;99.90
40670;DHT22;26355;45.528;9.234;2022-11-12T08:47:51;14.20;99.90
40670;DHT22;26355;45.528;9.234;2022-11-12T08:50:17;14.20;99.90
40670;DHT22;26355;45.528;9.234;2022-11-12T08:52:43;14.20;99.90
40670;DHT22;26355;45.528;9.234;2022-11-12T08:55:09;14.10;99.90
40670;DHT22;26355;45.528;9.234;2022-11-12T08:57:41;14.20;99.90
40670;DHT22;26355;45.528;9.234;2022-11-12T09:00:09;14.30;99.90
40670;DHT22;26355;45.528;9.234;2022-11-12T09:02:36;14.20;99.90
40670;DHT22;26355;45.528;9.234;2022-11-12T09:05:02;14.20;99.90
40670;DHT22;26355;45.528;9.234;2022-11-12T09:07:28;14.30;99.90
40670;DHT22;26355;45.528;9.234;2022-11-12T09:09:53;14.40;99.90
40670;DHT22;26355;45.528;9.234;2022-11-12T09:12:19;14.30;99.90
40670;DHT22;26355;45.528;9.234;2022-11-12T09:14:45;14.40;99.90
40670;DHT22;26355;45.528;9.234;2022-11-12T09:17:11;14.50;99.90
40670;DHT22;26355;45.528;9.234;2022-11-12T09:19:37;14.60;99.90
40670;DHT22;26355;45.528;9.234;2022-11-12T09:22:03;14.80;99.90
40670;DHT22;26355;45.528;9.234;2022-11-12T09:24:29;14.90;99.90
40670;DHT22;26355;45.528;9.234;2022-11-12T09:26:55;15.00;99.90
40670;DHT22;26355;45.528;9.234;2022-11-12T09:29:20;15.10;99.90
40670;DHT22;26355;45.528;9.234;2022-11-12T09:31:46;15.30;99.90
40670;DHT22;26355;45.528;9.234;2022-11-12T09:34:12;15.10;99.90
40670;DHT22;26355;45.528;9.234;2022-11-12T09:36:39;14.90;99.90
40670;DHT22;26355;45.528;9.234;2022-11-12T09:39:05;15.00;99.90
40670;DHT22;26355;45.528;9.234;2022-11-12T09:41:35;15.00;99.90
40670;DHT22;26355;45.528;9.234;2022-11-12T09:44:04;15.00;99.90
40670;DHT22;26355;45.528;9.234;2022-11-12T09:47:06;15.10;99.90
40670;DHT22;26355;45.528;9.234;2022-11-12T09:52:43;15.10;99.90
40670;DHT22;26355;45.528;9.234;2022-11-12T09:55:32;15.20;99.90
40670;DHT22;26355;45.528;9.234;2022-11-12T09:57:59;15.30;99.90
40670;DHT22;26355;45.528;9.234;2022-11-12T10:00:25;15.30;99.90
40670;DHT22;26355;45.528;9.234;2022-11-12T10:05:37;15.30;99.90
40670;DHT22;26355;45.528;9.234;2022-11-12T10:08:29;15.30;99.90
40670;DHT22;26355;45.528;9.234;2022-11-12T10:11:28;15.30;99.90
40670;DHT22;26355;45.528;9.234;2022-11-12T10:19:52;15.50;99.90
40670;DHT22;26355;45.528;9.234;2022-11-12T10:24:47;15.50;99.90
40670;DHT22;26355;45.528;9.234;2022-11-12T10:27:26;15.60;99.90
40670;DHT22;26355;45.528;9.234;2022-11-12T10:30:02;15.70;99.90
40670;DHT22;26355;45.528;9.234;2022-11-12T10:32:28;15.80;99.90
40670;DHT22;26355;45.528;9.234;2022-11-12T10:34:53;15.90;99.90
40670;DHT22;26355;45.528;9.234;2022-11-12T10:37:21;15.90;99.90
40670;DHT22;26355;45.528;9.234;2022-11-12T10:39:49;16.00;99.90
40670;DHT22;26355;45.528;9.234;2022-11-12T10:42:17;16.20;99.90
40670;DHT22;26355;45.528;9.234;2022-11-12T10:44:43;16.20;99.90
40670;DHT22;26355;45.528;9.234;2022-11-12T10:49:44;16.70;99.90
40670;DHT22;26355;45.528;9.234;2022-11-12T10:52:23;16.80;99.90
40670;DHT22;26355;45.528;9.234;2022-11-12T10:55:18;16.90;99.90
40670;DHT22;26355;45.528;9.234;2022-11-12T10:57:44;16.90;99.90
40670;DHT22;26355;45.528;9.234;2022-11-12T11:02:54;17.10;99.90
40670;DHT22;26355;45.528;9.234;2022-11-12T11:05:30;17.10;99.90
40670;DHT22;26355;45.528;9.234;2022-11-12T11:07:57;17.10;99.90
40670;DHT22;26355;45.528;9.234;2022-11-12T11:10:40;17.20;99.90
40670;DHT22;26355;45.528;9.234;2022-11-12T11:13:21;17.20;99.90
40670;DHT22;26355;45.528;9.234;2022-11-12T11:16:02;17.30;99.90
40670;DHT22;26355;45.528;9.234;2022-11-12T11:18:30;17.20;99.90
40670;DHT22;26355;45.528;9.234;2022-11-12T11:23:59;17.20;99.90
40670;DHT22;26355;45.528;9.234;2022-11-12T11:29:54;17.10;99.90
40670;DHT22;26355;45.528;9.234;2022-11-12T11:35:16;17.10;99.90
40670;DHT22;26355;45.528;9.234;2022-11-12T11:37:56;17.20;99.90
40670;DHT22;26355;45.528;9.234;2022-11-12T11:43:50;17.00;99.90
40670;DHT22;26355;45.528;9.234;2022-11-12T11:46:54;17.00;99.90
40670;DHT22;26355;45.528;9.234;2022-11-12T11:57:15;16.90;99.90
40670;DHT22;26355;45.528;9.234;2022-11-12T12:02:50;16.70;99.90
40670;DHT22;26355;45.528;9.234;2022-11-12T12:11:41;16.60;99.90
40670;DHT22;26355;45.528;9.234;2022-11-12T12:17:34;16.70;99.90
40670;DHT22;26355;45.528;9.234;2022-11-12T12:20:16;16.70;99.90
40670;DHT22;26355;45.528;9.234;2022-11-12T12:22:55;16.80;99.90
40670;DHT22;26355;45.528;9.234;2022-11-12T12:25:32;16.90;99.90
40670;DHT22;26355;45.528;9.234;2022-11-12T12:30:46;17.00;99.90
40670;DHT22;26355;45.528;9.234;2022-11-12T12:33:36;17.00;99.90
40670;DHT22;26355;45.528;9.234;2022-11-12T12:36:14;17.00;99.90
40670;DHT22;26355;45.528;9.234;2022-11-12T12:42:25;16.90;99.90
40670;DHT22;26355;45.528;9.234;2022-11-12T12:44:19;16.90;99.90
40670;DHT22;26355;45.528;9.234;2022-11-12T12:46:50;17.00;99.90
40670;DHT22;26355;45.528;9.234;2022-11-12T12:49:29;17.00;99.90
40670;DHT22;26355;45.528;9.234;2022-11-12T12:51:57;16.90;99.90
40670;DHT22;26355;45.528;9.234;2022-11-12T12:57:34;16.80;99.90
40670;DHT22;26355;45.528;9.234;2022-11-12T13:00:38;16.90;99.90
40670;DHT22;26355;45.528;9.234;2022-11-12T13:03:04;17.00;99.90
40670;DHT22;26355;45.528;9.234;2022-11-12T13:05:32;17.00;99.90
40670;DHT22;26355;45.528;9.234;2022-11-12T13:08:17;17.10;99.90
40670;DHT22;26355;45.528;9.234;2022-11-12T13:10:48;17.10;99.90
40670;DHT22;26355;45.528;9.234;2022-11-12T13:15:47;17.10;99.90
40670;DHT22;26355;45.528;9.234;2022-11-12T13:21:17;17.10;99.90
40670;DHT22;26355;45.528;9.234;2022-11-12T13:23:51;17.00;99.90
40670;DHT22;26355;45.528;9.234;2022-11-12T13:29:23;16.90;99.90
40670;DHT22;26355;45.528;9.234;2022-11-12T13:34:50;17.00;99.90
40670;DHT22;26355;45.528;9.234;2022-11-12T13:37:21;17.00;99.90
40670;DHT22;26355;45.528;9.234;2022-11-12T13:39:47;17.00;99.90
40670;DHT22;26355;45.528;9.234;2022-11-12T13:42:16;17.00;99.90
40670;DHT22;26355;45.528;9.234;2022-11-12T13:45:25;17.00;99.90
40670;DHT22;26355;45.528;9.234;2022-11-12T13:47:52;17.00;99.90
40670;DHT22;26355;45.528;9.234;2022-11-12T13:50:22;17.10;99.90
40670;DHT22;26355;45.528;9.234;2022-11-12T13:52:49;17.10;99.90
40670;DHT22;26355;45.528;9.234;2022-11-12T13:55:18;17.00;99.90
40670;DHT22;26355;45.528;9.234;2022-11-12T13:57:52;17.00;99.90
40670;DHT22;26355;45.528;9.234;2022-11-12T14:03:00;17.00;99.90
40670;DHT22;26355;45.528;9.234;2022-11-12T14:05:31;17.10;99.90
40670;DHT22;26355;45.528;9.234;2022-11-12T14:08:17;17.00;99.90
40670;DHT22;26355;45.528;9.234;2022-11-12T14:19:25;17.00;99.90
40670;DHT22;26355;45.528;9.234;2022-11-12T14:22:13;16.90;99.90
40670;DHT22;26355;45.528;9.234;2022-11-12T14:24:40;16.90;99.90
40670;DHT22;26355;45.528;9.234;2022-11-12T14:30:24;16.90;99.90
40670;DHT22;26355;45.528;9.234;2022-11-12T14:32:56;17.00;99.90
40670;DHT22;26355;45.528;9.234;2022-11-12T14:35:33;16.90;99.90
40670;DHT22;26355;45.528;9.234;2022-11-12T14:43:31;17.00;99.90
40670;DHT22;26355;45.528;9.234;2022-11-12T14:45:59;17.10;99.90
40670;DHT22;26355;45.528;9.234;2022-11-12T14:48:26;17.00;99.90
40670;DHT22;26355;45.528;9.234;2022-11-12T14:51:03;17.00;99.90
40670;DHT22;26355;45.528;9.234;2022-11-12T14:53:43;17.10;99.90
40670;DHT22;26355;45.528;9.234;2022-11-12T14:56:28;17.00;99.90
40670;DHT22;26355;45.528;9.234;2022-11-12T14:58:55;17.10;99.90
40670;DHT22;26355;45.528;9.234;2022-11-12T15:01:27;17.10;99.90
40670;DHT22;26355;45.528;9.234;2022-11-12T15:06:36;17.10;99.90
40670;DHT22;26355;45.528;9.234;2022-11-12T15:09:03;17.10;99.90
40670;DHT22;26355;45.528;9.234;2022-11-12T15:13:56;16.90;99.90
40670;DHT22;26355;45.528;9.234;2022-11-12T15:16:29;17.00;99.90
40670;DHT22;26355;45.528;9.234;2022-11-12T15:21:31;17.00;99.90
40670;DHT22;26355;45.528;9.234;2022-11-12T15:26:45;16.90;99.90
40670;DHT22;26355;45.528;9.234;2022-11-12T15:29:13;16.80;99.90
40670;DHT22;26355;45.528;9.234;2022-11-12T15:31:51;16.70;99.90
40670;DHT22;26355;45.528;9.234;2022-11-12T15:39:49;16.50;99.90
40670;DHT22;26355;45.528;9.234;2022-11-12T15:42:29;16.50;99.90
40670;DHT22;26355;45.528;9.234;2022-11-12T15:45:03;16.50;99.90
40670;DHT22;26355;45.528;9.234;2022-11-12T15:47:34;16.50;99.90
40670;DHT22;26355;45.528;9.234;2022-11-12T15:50:18;16.50;99.90
40670;DHT22;26355;45.528;9.234;2022-11-12T15:52:44;16.50;99.90
40670;DHT22;26355;45.528;9.234;2022-11-12T15:55:11;16.40;99.90
40670;DHT22;26355;45.528;9.234;2022-11-12T15:57:47;16.30;99.90
40670;DHT22;26355;45.528;9.234;2022-11-12T16:00:19;16.40;99.90
40670;DHT22;26355;45.528;9.234;2022-11-12T16:05:27;16.40;99.90
40670;DHT22;26355;45.528;9.234;2022-11-12T16:07:54;16.30;99.90
40670;DHT22;26355;45.528;9.234;2022-11-12T16:10:21;16.30;99.90
40670;DHT22;26355;45.528;9.234;2022-11-12T16:12:47;16.40;99.90
40670;DHT22;26355;45.528;9.234;2022-11-12T16:15:18;16.30;99.90
40670;DHT22;26355;45.528;9.234;2022-11-12T16:17:45;16.30;99.90
40670;DHT22;26355;45.528;9.234;2022-11-12T16:20:16;16.30;99.90
40670;DHT22;26355;45.528;9.234;2022-11-12T16:22:43;16.30;99.90
40670;DHT22;26355;45.528;9.234;2022-11-12T16:25:09;16.30;99.90
40670;DHT22;26355;45.528;9.234;2022-11-12T16:27:37;16.20;99.90
40670;DHT22;26355;45.528;9.234;2022-11-12T16:30:05;16.20;99.90
40670;DHT22;26355;45.528;9.234;2022-11-12T16:32:31;16.30;99.90
40670;DHT22;26355;45.528;9.234;2022-11-12T16:34:57;16.30;99.90
40670;DHT22;26355;45.528;9.234;2022-11-12T16:37:23;16.20;99.90
40670;DHT22;26355;45.528;9.234;2022-11-12T16:39:49;16.30;99.90
40670;DHT22;26355;45.528;9.234;2022-11-12T16:42:14;16.20;99.90
40670;DHT22;26355;45.528;9.234;2022-11-12T16:44:40;16.30;99.90
40670;DHT22;26355;45.528;9.234;2022-11-12T16:47:10;16.30;99.90
40670;DHT22;26355;45.528;9.234;2022-11-12T16:49:35;16.20;99.90
40670;DHT22;26355;45.528;9.234;2022-11-12T16:52:01;16.20;99.90
40670;DHT22;26355;45.528;9.234;2022-11-12T16:54:27;16.10;99.90
40670;DHT22;26355;45.528;9.234;2022-11-12T16:56:53;16.20;99.90
40670;DHT22;26355;45.528;9.234;2022-11-12T16:59:19;16.20;99.90
40670;DHT22;26355;45.528;9.234;2022-11-12T17:01:45;16.20;99.90
40670;DHT22;26355;45.528;9.234;2022-11-12T17:04:10;16.20;99.90
40670;DHT22;26355;45.528;9.234;2022-11-12T17:06:38;16.20;99.90
40670;DHT22;26355;45.528;9.234;2022-11-12T17:09:07;16.20;99.90
40670;DHT22;26355;45.528;9.234;2022-11-12T17:11:34;16.20;99.90
40670;DHT22;26355;45.528;9.234;2022-11-12T17:14:01;16.30;99.90
40670;DHT22;26355;45.528;9.234;2022-11-12T17:16:28;16.20;99.90
40670;DHT22;26355;45.528;9.234;2022-11-12T17:18:56;16.20;99.90
40670;DHT22;26355;45.528;9.234;2022-11-12T17:21:22;16.30;99.90
40670;DHT22;26355;45.528;9.234;2022-11-12T17:23:48;16.20;99.90
40670;DHT22;26355;45.528;9.234;2022-11-12T17:26:18;16.20;99.90
40670;DHT22;26355;45.528;9.234;2022-11-12T17:28:45;16.30;99.90
40670;DHT22;26355;45.528;9.234;2022-11-12T17:31:21;16.30;99.90
40670;DHT22;26355;45.528;9.234;2022-11-12T17:33:49;16.30;99.90
40670;DHT22;26355;45.528;9.234;2022-11-12T17:36:23;16.30;99.90
40670;DHT22;26355;45.528;9.234;2022-11-12T17:38:55;16.30;99.90
40670;DHT22;26355;45.528;9.234;2022-11-12T17:41:22;16.30;99.90
40670;DHT22;26355;45.528;9.234;2022-11-12T17:43:56;16.30;99.90
40670;DHT22;26355;45.528;9.234;2022-11-12T17:46:23;16.20;99.90
40670;DHT22;26355;45.528;9.234;2022-11-12T17:48:49;16.20;99.90